sensor_id;sensor_type;location;lat;lon;timestamp;P1;durP1;ratioP1;P2;durP2;ratioP2
17024;SDS011;8629;42.496;25.620;2023-04-15T00:02:25;4.73;;;3.10;;
17024;SDS011;8629;42.496;25.620;2023-04-15T00:04:52;3.40;;;2.27;;
17024;SDS011;8629;42.496;25.620;2023-04-15T00:07:19;2.53;;;2.30;;
17024;SDS011;8629;42.496;25.620;2023-04-15T00:09:46;3.67;;;2.50;;
17024;SDS011;8629;42.496;25.620;2023-04-15T00:12:12;5.07;;;2.53;;
17024;SDS011;8629;42.496;25.620;2023-04-15T00:14:40;3.10;;;2.70;;
17024;SDS011;8629;42.496;25.620;2023-04-15T00:17:07;4.17;;;2.73;;
17024;SDS011;8629;42.496;25.620;2023-04-15T00:19:34;4.80;;;2.27;;
17024;SDS011;8629;42.496;25.620;2023-04-15T00:22:01;5.93;;;2.77;;
17024;SDS011;8629;42.496;25.620;2023-04-15T00:24:27;3.20;;;2.70;;
17024;SDS011;8629;42.496;25.620;2023-04-15T00:26:55;7.80;;;3.10;;
17024;SDS011;8629;42.496;25.620;2023-04-15T00:29:22;4.13;;;2.50;;
17024;SDS011;8629;42.496;25.620;2023-04-15T00:31:50;5.03;;;2.57;;
17024;SDS011;8629;42.496;25.620;2023-04-15T00:34:18;6.07;;;2.73;;
17024;SDS011;8629;42.496;25.620;2023-04-15T00:36:45;3.93;;;2.50;;
17024;SDS011;8629;42.496;25.620;2023-04-15T00:39:12;3.70;;;2.33;;
17024;SDS011;8629;42.496;25.620;2023-04-15T00:41:38;6.17;;;2.40;;
17024;SDS011;8629;42.496;25.620;2023-04-15T00:44:05;6.93;;;3.27;;
17024;SDS011;8629;42.496;25.620;2023-04-15T00:46:32;2.67;;;2.20;;
17024;SDS011;8629;42.496;25.620;2023-04-15T00:49:03;5.80;;;3.03;;
17024;SDS011;8629;42.496;25.620;2023-04-15T00:51:30;5.53;;;2.50;;
17024;SDS011;8629;42.496;25.620;2023-04-15T00:53:57;5.57;;;2.40;;
17024;SDS011;8629;42.496;25.620;2023-04-15T00:56:24;3.93;;;1.90;;
17024;SDS011;8629;42.496;25.620;2023-04-15T00:58:52;3.77;;;2.10;;
17024;SDS011;8629;42.496;25.620;2023-04-15T01:01:20;4.10;;;2.27;;
17024;SDS011;8629;42.496;25.620;2023-04-15T01:03:47;3.33;;;2.40;;
17024;SDS011;8629;42.496;25.620;2023-04-15T01:06:16;3.80;;;2.70;;
17024;SDS011;8629;42.496;25.620;2023-04-15T01:08:43;2.80;;;2.50;;
17024;SDS011;8629;42.496;25.620;2023-04-15T01:11:11;2.50;;;2.23;;
17024;SDS011;8629;42.496;25.620;2023-04-15T01:13:38;3.90;;;2.10;;
17024;SDS011;8629;42.496;25.620;2023-04-15T01:16:05;6.13;;;2.90;;
17024;SDS011;8629;42.496;25.620;2023-04-15T01:18:33;3.50;;;2.37;;
17024;SDS011;8629;42.496;25.620;2023-04-15T01:21:00;7.43;;;3.03;;
17024;SDS011;8629;42.496;25.620;2023-04-15T01:23:29;2.87;;;2.17;;
17024;SDS011;8629;42.496;25.620;2023-04-15T01:25:57;3.00;;;2.23;;
17024;SDS011;8629;42.496;25.620;2023-04-15T01:28:24;2.57;;;2.23;;
17024;SDS011;8629;42.496;25.620;2023-04-15T01:31:03;5.53;;;2.23;;
17024;SDS011;8629;42.496;25.620;2023-04-15T01:33:31;4.33;;;2.40;;
17024;SDS011;8629;42.496;25.620;2023-04-15T01:35:58;4.00;;;2.20;;
17024;SDS011;8629;42.496;25.620;2023-04-15T01:38:25;4.43;;;2.43;;
17024;SDS011;8629;42.496;25.620;2023-04-15T01:40:52;6.83;;;2.40;;
17024;SDS011;8629;42.496;25.620;2023-04-15T01:43:21;5.10;;;2.70;;
17024;SDS011;8629;42.496;25.620;2023-04-15T01:45:47;6.33;;;2.73;;
17024;SDS011;8629;42.496;25.620;2023-04-15T01:48:14;4.83;;;2.20;;
17024;SDS011;8629;42.496;25.620;2023-04-15T01:50:42;2.90;;;2.00;;
17024;SDS011;8629;42.496;25.620;2023-04-15T01:53:08;1.87;;;1.67;;
17024;SDS011;8629;42.496;25.620;2023-04-15T01:55:35;4.50;;;2.20;;
17024;SDS011;8629;42.496;25.620;2023-04-15T01:58:02;4.77;;;2.33;;
17024;SDS011;8629;42.496;25.620;2023-04-15T02:00:30;3.70;;;2.40;;
17024;SDS011;8629;42.496;25.620;2023-04-15T02:02:57;5.30;;;2.53;;
17024;SDS011;8629;42.496;25.620;2023-04-15T02:05:24;2.90;;;2.60;;
17024;SDS011;8629;42.496;25.620;2023-04-15T02:07:51;4.63;;;2.30;;
17024;SDS011;8629;42.496;25.620;2023-04-15T02:10:18;3.47;;;2.43;;
17024;SDS011;8629;42.496;25.620;2023-04-15T02:12:45;7.73;;;2.97;;
17024;SDS011;8629;42.496;25.620;2023-04-15T02:15:12;2.47;;;2.10;;
17024;SDS011;8629;42.496;25.620;2023-04-15T02:17:40;4.37;;;2.23;;
17024;SDS011;8629;42.496;25.620;2023-04-15T02:20:10;2.43;;;2.00;;
17024;SDS011;8629;42.496;25.620;2023-04-15T02:22:37;3.13;;;2.30;;
17024;SDS011;8629;42.496;25.620;2023-04-15T02:25:04;4.83;;;2.43;;
17024;SDS011;8629;42.496;25.620;2023-04-15T02:27:32;14.47;;;11.17;;
17024;SDS011;8629;42.496;25.620;2023-04-15T02:29:59;12.07;;;6.70;;
17024;SDS011;8629;42.496;25.620;2023-04-15T02:32:25;8.03;;;4.33;;
17024;SDS011;8629;42.496;25.620;2023-04-15T02:34:54;3.73;;;2.90;;
17024;SDS011;8629;42.496;25.620;2023-04-15T02:37:21;7.37;;;3.70;;
17024;SDS011;8629;42.496;25.620;2023-04-15T02:39:48;4.87;;;3.07;;
17024;SDS011;8629;42.496;25.620;2023-04-15T02:42:15;9.00;;;4.90;;
17024;SDS011;8629;42.496;25.620;2023-04-15T02:44:42;5.47;;;4.57;;
17024;SDS011;8629;42.496;25.620;2023-04-15T02:47:09;4.23;;;2.60;;
17024;SDS011;8629;42.496;25.620;2023-04-15T02:49:37;6.43;;;3.13;;
17024;SDS011;8629;42.496;25.620;2023-04-15T02:52:05;3.00;;;2.50;;
17024;SDS011;8629;42.496;25.620;2023-04-15T02:54:32;3.30;;;2.90;;
17024;SDS011;8629;42.496;25.620;2023-04-15T02:56:59;7.37;;;2.90;;
17024;SDS011;8629;42.496;25.620;2023-04-15T02:59:26;2.47;;;2.17;;
17024;SDS011;8629;42.496;25.620;2023-04-15T03:01:53;9.50;;;3.00;;
17024;SDS011;8629;42.496;25.620;2023-04-15T03:04:24;7.33;;;5.60;;
17024;SDS011;8629;42.496;25.620;2023-04-15T03:06:54;5.47;;;2.87;;
17024;SDS011;8629;42.496;25.620;2023-04-15T03:09:22;3.13;;;2.30;;
17024;SDS011;8629;42.496;25.620;2023-04-15T03:11:48;3.10;;;2.80;;
17024;SDS011;8629;42.496;25.620;2023-04-15T03:14:17;5.80;;;2.90;;
17024;SDS011;8629;42.496;25.620;2023-04-15T03:16:45;3.20;;;2.77;;
17024;SDS011;8629;42.496;25.620;2023-04-15T03:19:14;3.20;;;2.70;;
17024;SDS011;8629;42.496;25.620;2023-04-15T03:21:41;3.27;;;2.77;;
17024;SDS011;8629;42.496;25.620;2023-04-15T03:24:08;3.40;;;2.67;;
17024;SDS011;8629;42.496;25.620;2023-04-15T03:26:36;6.77;;;5.07;;
17024;SDS011;8629;42.496;25.620;2023-04-15T03:29:03;5.03;;;4.00;;
17024;SDS011;8629;42.496;25.620;2023-04-15T03:31:30;7.67;;;3.40;;
17024;SDS011;8629;42.496;25.620;2023-04-15T03:33:57;3.20;;;2.90;;
17024;SDS011;8629;42.496;25.620;2023-04-15T03:36:24;3.67;;;3.00;;
17024;SDS011;8629;42.496;25.620;2023-04-15T03:38:51;4.13;;;3.20;;
17024;SDS011;8629;42.496;25.620;2023-04-15T03:41:18;7.70;;;3.57;;
17024;SDS011;8629;42.496;25.620;2023-04-15T03:43:46;5.23;;;3.57;;
17024;SDS011;8629;42.496;25.620;2023-04-15T03:46:12;7.90;;;6.07;;
17024;SDS011;8629;42.496;25.620;2023-04-15T03:48:39;5.50;;;4.40;;
17024;SDS011;8629;42.496;25.620;2023-04-15T03:51:06;6.17;;;3.10;;
17024;SDS011;8629;42.496;25.620;2023-04-15T03:53:33;10.13;;;6.43;;
17024;SDS011;8629;42.496;25.620;2023-04-15T03:56:00;12.83;;;9.53;;
17024;SDS011;8629;42.496;25.620;2023-04-15T03:58:27;13.07;;;9.20;;
17024;SDS011;8629;42.496;25.620;2023-04-15T04:00:55;4.37;;;3.70;;
17024;SDS011;8629;42.496;25.620;2023-04-15T04:03:21;3.63;;;3.33;;
17024;SDS011;8629;42.496;25.620;2023-04-15T04:05:49;4.90;;;2.90;;
17024;SDS011;8629;42.496;25.620;2023-04-15T04:08:16;3.77;;;2.83;;
17024;SDS011;8629;42.496;25.620;2023-04-15T04:10:43;7.27;;;2.60;;
17024;SDS011;8629;42.496;25.620;2023-04-15T04:13:12;5.07;;;4.07;;
17024;SDS011;8629;42.496;25.620;2023-04-15T04:15:39;5.67;;;5.17;;
17024;SDS011;8629;42.496;25.620;2023-04-15T04:18:07;8.83;;;4.07;;
17024;SDS011;8629;42.496;25.620;2023-04-15T04:20:34;4.13;;;3.43;;
17024;SDS011;8629;42.496;25.620;2023-04-15T04:23:01;5.73;;;4.43;;
17024;SDS011;8629;42.496;25.620;2023-04-15T04:25:27;6.57;;;5.50;;
17024;SDS011;8629;42.496;25.620;2023-04-15T04:27:54;7.13;;;6.43;;
17024;SDS011;8629;42.496;25.620;2023-04-15T04:30:21;6.33;;;4.53;;
17024;SDS011;8629;42.496;25.620;2023-04-15T04:32:48;5.40;;;3.97;;
17024;SDS011;8629;42.496;25.620;2023-04-15T04:35:16;4.97;;;3.70;;
17024;SDS011;8629;42.496;25.620;2023-04-15T04:37:43;6.30;;;3.37;;
17024;SDS011;8629;42.496;25.620;2023-04-15T04:40:10;4.60;;;3.17;;
17024;SDS011;8629;42.496;25.620;2023-04-15T04:42:37;5.23;;;4.30;;
17024;SDS011;8629;42.496;25.620;2023-04-15T04:45:05;4.30;;;3.90;;
17024;SDS011;8629;42.496;25.620;2023-04-15T04:47:33;7.03;;;4.30;;
17024;SDS011;8629;42.496;25.620;2023-04-15T04:49:59;10.27;;;7.03;;
17024;SDS011;8629;42.496;25.620;2023-04-15T04:52:27;8.73;;;5.83;;
17024;SDS011;8629;42.496;25.620;2023-04-15T04:54:54;7.47;;;4.27;;
17024;SDS011;8629;42.496;25.620;2023-04-15T04:57:21;5.93;;;5.43;;
17024;SDS011;8629;42.496;25.620;2023-04-15T04:59:48;5.17;;;4.33;;
17024;SDS011;8629;42.496;25.620;2023-04-15T05:02:15;7.67;;;4.00;;
17024;SDS011;8629;42.496;25.620;2023-04-15T05:04:41;4.67;;;3.93;;
17024;SDS011;8629;42.496;25.620;2023-04-15T05:07:08;5.27;;;3.70;;
17024;SDS011;8629;42.496;25.620;2023-04-15T05:09:37;11.57;;;3.17;;
17024;SDS011;8629;42.496;25.620;2023-04-15T05:12:03;7.63;;;6.73;;
17024;SDS011;8629;42.496;25.620;2023-04-15T05:14:30;7.57;;;6.87;;
17024;SDS011;8629;42.496;25.620;2023-04-15T05:16:57;8.23;;;7.53;;
17024;SDS011;8629;42.496;25.620;2023-04-15T05:19:24;11.73;;;9.63;;
17024;SDS011;8629;42.496;25.620;2023-04-15T05:21:50;10.40;;;8.73;;
17024;SDS011;8629;42.496;25.620;2023-04-15T05:24:17;7.70;;;6.90;;
17024;SDS011;8629;42.496;25.620;2023-04-15T05:26:48;12.90;;;10.50;;
17024;SDS011;8629;42.496;25.620;2023-04-15T05:29:15;19.20;;;16.20;;
17024;SDS011;8629;42.496;25.620;2023-04-15T05:31:42;31.70;;;24.47;;
17024;SDS011;8629;42.496;25.620;2023-04-15T05:34:08;29.47;;;21.77;;
17024;SDS011;8629;42.496;25.620;2023-04-15T05:36:39;21.53;;;17.33;;
17024;SDS011;8629;42.496;25.620;2023-04-15T05:39:06;19.63;;;14.27;;
17024;SDS011;8629;42.496;25.620;2023-04-15T05:41:36;9.30;;;7.87;;
17024;SDS011;8629;42.496;25.620;2023-04-15T05:44:05;6.97;;;6.37;;
17024;SDS011;8629;42.496;25.620;2023-04-15T05:46:34;9.00;;;7.10;;
17024;SDS011;8629;42.496;25.620;2023-04-15T05:49:00;7.43;;;5.70;;
17024;SDS011;8629;42.496;25.620;2023-04-15T05:51:27;6.47;;;5.97;;
17024;SDS011;8629;42.496;25.620;2023-04-15T05:53:54;7.47;;;6.57;;
17024;SDS011;8629;42.496;25.620;2023-04-15T05:56:20;8.33;;;6.60;;
17024;SDS011;8629;42.496;25.620;2023-04-15T05:58:47;6.07;;;5.47;;
17024;SDS011;8629;42.496;25.620;2023-04-15T06:01:15;7.17;;;6.47;;
17024;SDS011;8629;42.496;25.620;2023-04-15T06:03:42;5.00;;;4.50;;
17024;SDS011;8629;42.496;25.620;2023-04-15T06:06:09;5.50;;;5.00;;
17024;SDS011;8629;42.496;25.620;2023-04-15T06:08:35;5.03;;;4.60;;
17024;SDS011;8629;42.496;25.620;2023-04-15T06:11:02;7.63;;;5.00;;
17024;SDS011;8629;42.496;25.620;2023-04-15T06:13:30;8.17;;;7.33;;
17024;SDS011;8629;42.496;25.620;2023-04-15T06:15:56;8.33;;;7.53;;
17024;SDS011;8629;42.496;25.620;2023-04-15T06:18:25;8.13;;;7.37;;
17024;SDS011;8629;42.496;25.620;2023-04-15T06:20:52;11.70;;;10.50;;
17024;SDS011;8629;42.496;25.620;2023-04-15T06:23:18;9.30;;;8.37;;
17024;SDS011;8629;42.496;25.620;2023-04-15T06:25:45;9.60;;;8.63;;
17024;SDS011;8629;42.496;25.620;2023-04-15T06:28:12;7.70;;;6.90;;
17024;SDS011;8629;42.496;25.620;2023-04-15T06:30:39;6.23;;;5.63;;
17024;SDS011;8629;42.496;25.620;2023-04-15T06:33:05;6.83;;;6.07;;
17024;SDS011;8629;42.496;25.620;2023-04-15T06:35:34;8.43;;;7.70;;
17024;SDS011;8629;42.496;25.620;2023-04-15T06:38:00;7.30;;;6.67;;
17024;SDS011;8629;42.496;25.620;2023-04-15T06:40:27;7.80;;;6.97;;
17024;SDS011;8629;42.496;25.620;2023-04-15T06:42:54;6.73;;;6.17;;
17024;SDS011;8629;42.496;25.620;2023-04-15T06:45:20;7.90;;;6.23;;
17024;SDS011;8629;42.496;25.620;2023-04-15T06:47:47;7.63;;;6.47;;
17024;SDS011;8629;42.496;25.620;2023-04-15T06:50:14;10.03;;;8.10;;
17024;SDS011;8629;42.496;25.620;2023-04-15T06:52:42;10.27;;;8.80;;
17024;SDS011;8629;42.496;25.620;2023-04-15T06:55:09;10.47;;;6.93;;
17024;SDS011;8629;42.496;25.620;2023-04-15T06:57:36;8.33;;;7.53;;
17024;SDS011;8629;42.496;25.620;2023-04-15T07:00:03;11.20;;;10.10;;
17024;SDS011;8629;42.496;25.620;2023-04-15T07:02:31;12.47;;;11.10;;
17024;SDS011;8629;42.496;25.620;2023-04-15T07:04:58;42.87;;;29.53;;
17024;SDS011;8629;42.496;25.620;2023-04-15T07:07:25;33.27;;;29.77;;
17024;SDS011;8629;42.496;25.620;2023-04-15T07:09:53;18.77;;;16.87;;
17024;SDS011;8629;42.496;25.620;2023-04-15T07:12:20;14.27;;;10.93;;
17024;SDS011;8629;42.496;25.620;2023-04-15T07:14:47;12.80;;;10.77;;
17024;SDS011;8629;42.496;25.620;2023-04-15T07:17:14;11.10;;;8.83;;
17024;SDS011;8629;42.496;25.620;2023-04-15T07:19:41;11.73;;;9.17;;
17024;SDS011;8629;42.496;25.620;2023-04-15T07:22:08;15.80;;;13.20;;
17024;SDS011;8629;42.496;25.620;2023-04-15T07:24:35;12.73;;;9.93;;
17024;SDS011;8629;42.496;25.620;2023-04-15T07:27:03;12.73;;;9.83;;
17024;SDS011;8629;42.496;25.620;2023-04-15T07:29:30;16.37;;;14.43;;
17024;SDS011;8629;42.496;25.620;2023-04-15T07:31:56;13.23;;;10.93;;
17024;SDS011;8629;42.496;25.620;2023-04-15T07:34:23;19.57;;;12.87;;
17024;SDS011;8629;42.496;25.620;2023-04-15T07:36:50;20.23;;;17.57;;
17024;SDS011;8629;42.496;25.620;2023-04-15T07:39:17;12.67;;;9.73;;
17024;SDS011;8629;42.496;25.620;2023-04-15T07:41:44;15.40;;;12.67;;
17024;SDS011;8629;42.496;25.620;2023-04-15T07:44:14;31.67;;;24.27;;
17024;SDS011;8629;42.496;25.620;2023-04-15T07:46:41;26.70;;;20.50;;
17024;SDS011;8629;42.496;25.620;2023-04-15T07:49:08;12.67;;;11.10;;
17024;SDS011;8629;42.496;25.620;2023-04-15T07:51:35;15.67;;;14.00;;
17024;SDS011;8629;42.496;25.620;2023-04-15T07:54:01;17.30;;;15.27;;
17024;SDS011;8629;42.496;25.620;2023-04-15T07:56:28;18.40;;;16.50;;
17024;SDS011;8629;42.496;25.620;2023-04-15T07:58:55;20.03;;;15.90;;
17024;SDS011;8629;42.496;25.620;2023-04-15T08:01:23;16.53;;;13.63;;
17024;SDS011;8629;42.496;25.620;2023-04-15T08:03:50;16.10;;;13.70;;
17024;SDS011;8629;42.496;25.620;2023-04-15T08:06:17;15.30;;;11.80;;
17024;SDS011;8629;42.496;25.620;2023-04-15T08:08:44;16.20;;;13.90;;
17024;SDS011;8629;42.496;25.620;2023-04-15T08:11:11;13.27;;;11.03;;
17024;SDS011;8629;42.496;25.620;2023-04-15T08:13:38;10.77;;;8.53;;
17024;SDS011;8629;42.496;25.620;2023-04-15T08:16:16;12.87;;;8.20;;
17024;SDS011;8629;42.496;25.620;2023-04-15T08:18:45;9.00;;;8.10;;
17024;SDS011;8629;42.496;25.620;2023-04-15T08:21:14;10.90;;;8.20;;
17024;SDS011;8629;42.496;25.620;2023-04-15T08:23:41;12.20;;;9.23;;
17024;SDS011;8629;42.496;25.620;2023-04-15T08:26:08;11.57;;;8.37;;
17024;SDS011;8629;42.496;25.620;2023-04-15T08:28:36;14.57;;;9.43;;
17024;SDS011;8629;42.496;25.620;2023-04-15T08:31:03;11.57;;;9.60;;
17024;SDS011;8629;42.496;25.620;2023-04-15T08:33:30;12.23;;;9.57;;
17024;SDS011;8629;42.496;25.620;2023-04-15T08:35:58;11.97;;;8.60;;
17024;SDS011;8629;42.496;25.620;2023-04-15T08:38:25;10.37;;;7.97;;
17024;SDS011;8629;42.496;25.620;2023-04-15T08:40:52;11.77;;;10.33;;
17024;SDS011;8629;42.496;25.620;2023-04-15T08:43:20;11.60;;;9.47;;
17024;SDS011;8629;42.496;25.620;2023-04-15T08:45:50;19.03;;;15.03;;
17024;SDS011;8629;42.496;25.620;2023-04-15T08:48:17;25.03;;;16.07;;
17024;SDS011;8629;42.496;25.620;2023-04-15T08:50:45;20.00;;;14.27;;
17024;SDS011;8629;42.496;25.620;2023-04-15T08:53:13;17.43;;;12.97;;
17024;SDS011;8629;42.496;25.620;2023-04-15T08:55:41;11.50;;;8.73;;
17024;SDS011;8629;42.496;25.620;2023-04-15T08:58:11;10.80;;;8.23;;
17024;SDS011;8629;42.496;25.620;2023-04-15T09:00:38;11.00;;;9.37;;
17024;SDS011;8629;42.496;25.620;2023-04-15T09:03:06;14.47;;;9.60;;
17024;SDS011;8629;42.496;25.620;2023-04-15T09:05:34;15.10;;;8.83;;
17024;SDS011;8629;42.496;25.620;2023-04-15T09:08:01;9.97;;;6.80;;
17024;SDS011;8629;42.496;25.620;2023-04-15T09:10:30;9.40;;;7.00;;
17024;SDS011;8629;42.496;25.620;2023-04-15T09:12:58;17.17;;;14.10;;
17024;SDS011;8629;42.496;25.620;2023-04-15T09:15:26;11.13;;;9.33;;
17024;SDS011;8629;42.496;25.620;2023-04-15T09:17:54;10.13;;;8.53;;
17024;SDS011;8629;42.496;25.620;2023-04-15T09:20:21;10.70;;;8.87;;
17024;SDS011;8629;42.496;25.620;2023-04-15T09:22:49;13.97;;;10.47;;
17024;SDS011;8629;42.496;25.620;2023-04-15T09:25:25;14.97;;;11.97;;
17024;SDS011;8629;42.496;25.620;2023-04-15T09:27:55;15.67;;;13.00;;
17024;SDS011;8629;42.496;25.620;2023-04-15T09:30:24;12.40;;;10.57;;
17024;SDS011;8629;42.496;25.620;2023-04-15T09:32:53;16.73;;;11.77;;
17024;SDS011;8629;42.496;25.620;2023-04-15T09:35:21;11.80;;;9.20;;
17024;SDS011;8629;42.496;25.620;2023-04-15T09:37:48;10.53;;;8.37;;
17024;SDS011;8629;42.496;25.620;2023-04-15T09:40:20;10.97;;;8.27;;
17024;SDS011;8629;42.496;25.620;2023-04-15T09:42:58;11.27;;;8.90;;
17024;SDS011;8629;42.496;25.620;2023-04-15T09:45:26;9.30;;;8.47;;
17024;SDS011;8629;42.496;25.620;2023-04-15T09:47:53;16.33;;;11.40;;
17024;SDS011;8629;42.496;25.620;2023-04-15T09:50:20;18.60;;;12.67;;
17024;SDS011;8629;42.496;25.620;2023-04-15T09:52:47;14.60;;;10.00;;
17024;SDS011;8629;42.496;25.620;2023-04-15T09:55:14;11.53;;;8.67;;
17024;SDS011;8629;42.496;25.620;2023-04-15T09:57:44;23.37;;;17.93;;
17024;SDS011;8629;42.496;25.620;2023-04-15T10:00:13;15.33;;;13.33;;
17024;SDS011;8629;42.496;25.620;2023-04-15T10:02:40;9.97;;;8.63;;
17024;SDS011;8629;42.496;25.620;2023-04-15T10:05:08;9.40;;;7.10;;
17024;SDS011;8629;42.496;25.620;2023-04-15T10:07:36;8.27;;;5.77;;
17024;SDS011;8629;42.496;25.620;2023-04-15T10:10:05;8.37;;;7.10;;
17024;SDS011;8629;42.496;25.620;2023-04-15T10:12:37;6.73;;;6.07;;
17024;SDS011;8629;42.496;25.620;2023-04-15T10:15:06;6.43;;;5.73;;
17024;SDS011;8629;42.496;25.620;2023-04-15T10:17:40;5.97;;;5.37;;
17024;SDS011;8629;42.496;25.620;2023-04-15T10:20:10;10.03;;;6.90;;
17024;SDS011;8629;42.496;25.620;2023-04-15T10:22:38;9.40;;;6.00;;
17024;SDS011;8629;42.496;25.620;2023-04-15T10:25:09;6.20;;;5.20;;
17024;SDS011;8629;42.496;25.620;2023-04-15T10:27:38;6.70;;;5.23;;
17024;SDS011;8629;42.496;25.620;2023-04-15T10:30:06;9.37;;;7.10;;
17024;SDS011;8629;42.496;25.620;2023-04-15T10:32:35;7.57;;;6.87;;
17024;SDS011;8629;42.496;25.620;2023-04-15T10:35:03;16.40;;;11.07;;
17024;SDS011;8629;42.496;25.620;2023-04-15T10:37:32;10.43;;;7.73;;
17024;SDS011;8629;42.496;25.620;2023-04-15T10:40:00;8.20;;;6.80;;
17024;SDS011;8629;42.496;25.620;2023-04-15T10:42:32;8.63;;;7.57;;
17024;SDS011;8629;42.496;25.620;2023-04-15T10:44:59;7.13;;;6.53;;
17024;SDS011;8629;42.496;25.620;2023-04-15T10:47:28;7.10;;;6.43;;
17024;SDS011;8629;42.496;25.620;2023-04-15T10:49:58;7.07;;;5.60;;
17024;SDS011;8629;42.496;25.620;2023-04-15T10:52:27;4.47;;;4.07;;
17024;SDS011;8629;42.496;25.620;2023-04-15T10:55:00;6.97;;;5.00;;
17024;SDS011;8629;42.496;25.620;2023-04-15T10:57:33;7.10;;;4.77;;
17024;SDS011;8629;42.496;25.620;2023-04-15T11:00:01;7.87;;;4.63;;
17024;SDS011;8629;42.496;25.620;2023-04-15T11:02:40;8.03;;;6.13;;
17024;SDS011;8629;42.496;25.620;2023-04-15T11:05:13;8.67;;;7.83;;
17024;SDS011;8629;42.496;25.620;2023-04-15T11:07:48;6.57;;;5.97;;
17024;SDS011;8629;42.496;25.620;2023-04-15T11:13:23;7.87;;;5.90;;
17024;SDS011;8629;42.496;25.620;2023-04-15T11:15:57;6.47;;;5.73;;
17024;SDS011;8629;42.496;25.620;2023-04-15T11:18:26;7.47;;;6.53;;
17024;SDS011;8629;42.496;25.620;2023-04-15T11:20:56;11.87;;;9.40;;
17024;SDS011;8629;42.496;25.620;2023-04-15T11:23:29;7.80;;;4.37;;
17024;SDS011;8629;42.496;25.620;2023-04-15T11:25:57;5.57;;;4.43;;
17024;SDS011;8629;42.496;25.620;2023-04-15T11:28:25;7.97;;;3.80;;
17024;SDS011;8629;42.496;25.620;2023-04-15T11:30:53;7.60;;;5.30;;
17024;SDS011;8629;42.496;25.620;2023-04-15T11:33:20;4.73;;;4.33;;
17024;SDS011;8629;42.496;25.620;2023-04-15T11:35:47;6.23;;;5.33;;
17024;SDS011;8629;42.496;25.620;2023-04-15T11:38:16;10.20;;;8.00;;
17024;SDS011;8629;42.496;25.620;2023-04-15T11:40:43;5.47;;;3.70;;
17024;SDS011;8629;42.496;25.620;2023-04-15T11:43:11;9.07;;;5.23;;
17024;SDS011;8629;42.496;25.620;2023-04-15T11:45:47;7.10;;;4.30;;
17024;SDS011;8629;42.496;25.620;2023-04-15T11:48:15;9.03;;;4.90;;
17024;SDS011;8629;42.496;25.620;2023-04-15T11:50:43;4.47;;;3.47;;
17024;SDS011;8629;42.496;25.620;2023-04-15T11:53:11;8.37;;;5.00;;
17024;SDS011;8629;42.496;25.620;2023-04-15T11:55:43;4.77;;;3.47;;
17024;SDS011;8629;42.496;25.620;2023-04-15T11:58:12;7.50;;;4.10;;
17024;SDS011;8629;42.496;25.620;2023-04-15T12:00:41;5.03;;;4.10;;
17024;SDS011;8629;42.496;25.620;2023-04-15T12:03:12;7.83;;;5.20;;
17024;SDS011;8629;42.496;25.620;2023-04-15T12:11:26;5.37;;;3.13;;
17024;SDS011;8629;42.496;25.620;2023-04-15T12:14:01;2.30;;;2.10;;
17024;SDS011;8629;42.496;25.620;2023-04-15T12:16:30;1.97;;;1.80;;
17024;SDS011;8629;42.496;25.620;2023-04-15T12:18:57;6.07;;;2.47;;
17024;SDS011;8629;42.496;25.620;2023-04-15T12:21:25;2.63;;;2.43;;
17024;SDS011;8629;42.496;25.620;2023-04-15T12:23:55;6.13;;;2.17;;
17024;SDS011;8629;42.496;25.620;2023-04-15T12:26:28;4.47;;;1.80;;
17024;SDS011;8629;42.496;25.620;2023-04-15T12:28:59;4.00;;;2.40;;
17024;SDS011;8629;42.496;25.620;2023-04-15T12:31:26;7.37;;;2.90;;
17024;SDS011;8629;42.496;25.620;2023-04-15T12:33:54;4.80;;;2.90;;
17024;SDS011;8629;42.496;25.620;2023-04-15T12:36:21;6.90;;;3.60;;
17024;SDS011;8629;42.496;25.620;2023-04-15T12:38:48;3.93;;;2.67;;
17024;SDS011;8629;42.496;25.620;2023-04-15T12:41:15;2.70;;;1.93;;
17024;SDS011;8629;42.496;25.620;2023-04-15T12:43:44;1.87;;;1.77;;
17024;SDS011;8629;42.496;25.620;2023-04-15T12:46:12;4.13;;;2.20;;
17024;SDS011;8629;42.496;25.620;2023-04-15T12:48:39;4.60;;;2.87;;
17024;SDS011;8629;42.496;25.620;2023-04-15T12:51:06;3.40;;;2.00;;
17024;SDS011;8629;42.496;25.620;2023-04-15T12:53:34;4.70;;;2.10;;
17024;SDS011;8629;42.496;25.620;2023-04-15T12:56:01;2.70;;;1.90;;
17024;SDS011;8629;42.496;25.620;2023-04-15T12:58:28;3.77;;;2.00;;
17024;SDS011;8629;42.496;25.620;2023-04-15T13:01:01;4.00;;;2.53;;
17024;SDS011;8629;42.496;25.620;2023-04-15T13:03:28;2.23;;;2.07;;
17024;SDS011;8629;42.496;25.620;2023-04-15T13:05:55;2.00;;;1.73;;
17024;SDS011;8629;42.496;25.620;2023-04-15T13:08:23;5.27;;;3.50;;
17024;SDS011;8629;42.496;25.620;2023-04-15T13:10:52;2.60;;;2.40;;
17024;SDS011;8629;42.496;25.620;2023-04-15T13:13:19;5.17;;;2.60;;
17024;SDS011;8629;42.496;25.620;2023-04-15T13:15:46;5.53;;;2.77;;
17024;SDS011;8629;42.496;25.620;2023-04-15T13:18:15;3.23;;;2.40;;
17024;SDS011;8629;42.496;25.620;2023-04-15T13:20:41;3.60;;;2.80;;
17024;SDS011;8629;42.496;25.620;2023-04-15T13:23:08;5.03;;;2.80;;
17024;SDS011;8629;42.496;25.620;2023-04-15T13:25:35;3.27;;;2.37;;
17024;SDS011;8629;42.496;25.620;2023-04-15T13:28:04;4.73;;;2.97;;
17024;SDS011;8629;42.496;25.620;2023-04-15T13:30:31;5.97;;;3.30;;
17024;SDS011;8629;42.496;25.620;2023-04-15T13:32:58;4.33;;;2.37;;
17024;SDS011;8629;42.496;25.620;2023-04-15T13:35:26;6.67;;;4.10;;
17024;SDS011;8629;42.496;25.620;2023-04-15T13:37:52;4.67;;;2.63;;
17024;SDS011;8629;42.496;25.620;2023-04-15T13:40:21;5.70;;;2.90;;
17024;SDS011;8629;42.496;25.620;2023-04-15T13:42:49;3.30;;;3.00;;
17024;SDS011;8629;42.496;25.620;2023-04-15T13:45:17;5.20;;;2.80;;
17024;SDS011;8629;42.496;25.620;2023-04-15T13:47:44;6.13;;;2.40;;
17024;SDS011;8629;42.496;25.620;2023-04-15T13:50:11;4.97;;;3.00;;
17024;SDS011;8629;42.496;25.620;2023-04-15T13:52:40;4.83;;;3.10;;
17024;SDS011;8629;42.496;25.620;2023-04-15T13:55:09;5.77;;;3.47;;
17024;SDS011;8629;42.496;25.620;2023-04-15T13:57:35;5.00;;;3.60;;
17024;SDS011;8629;42.496;25.620;2023-04-15T14:00:03;6.87;;;5.60;;
17024;SDS011;8629;42.496;25.620;2023-04-15T14:02:30;6.93;;;4.40;;
17024;SDS011;8629;42.496;25.620;2023-04-15T14:04:57;3.43;;;2.47;;
17024;SDS011;8629;42.496;25.620;2023-04-15T14:07:24;4.63;;;3.77;;
17024;SDS011;8629;42.496;25.620;2023-04-15T14:09:52;4.30;;;2.10;;
17024;SDS011;8629;42.496;25.620;2023-04-15T14:12:20;7.47;;;3.37;;
17024;SDS011;8629;42.496;25.620;2023-04-15T14:14:47;6.47;;;5.67;;
17024;SDS011;8629;42.496;25.620;2023-04-15T14:17:14;4.17;;;2.90;;
17024;SDS011;8629;42.496;25.620;2023-04-15T14:19:41;3.50;;;2.53;;
17024;SDS011;8629;42.496;25.620;2023-04-15T14:22:08;5.70;;;4.00;;
17024;SDS011;8629;42.496;25.620;2023-04-15T14:24:35;5.73;;;3.17;;
17024;SDS011;8629;42.496;25.620;2023-04-15T14:27:03;6.30;;;3.90;;
17024;SDS011;8629;42.496;25.620;2023-04-15T14:29:30;5.47;;;2.97;;
17024;SDS011;8629;42.496;25.620;2023-04-15T14:31:59;3.80;;;2.37;;
17024;SDS011;8629;42.496;25.620;2023-04-15T14:34:25;3.20;;;2.90;;
17024;SDS011;8629;42.496;25.620;2023-04-15T14:36:52;4.80;;;3.63;;
17024;SDS011;8629;42.496;25.620;2023-04-15T14:39:20;4.60;;;2.60;;
17024;SDS011;8629;42.496;25.620;2023-04-15T14:41:48;3.50;;;2.47;;
17024;SDS011;8629;42.496;25.620;2023-04-15T14:44:16;2.53;;;2.20;;
17024;SDS011;8629;42.496;25.620;2023-04-15T14:46:43;5.90;;;2.87;;
17024;SDS011;8629;42.496;25.620;2023-04-15T14:49:10;3.53;;;2.57;;
17024;SDS011;8629;42.496;25.620;2023-04-15T14:51:36;3.73;;;3.30;;
17024;SDS011;8629;42.496;25.620;2023-04-15T14:54:03;7.93;;;4.80;;
17024;SDS011;8629;42.496;25.620;2023-04-15T14:56:30;4.17;;;3.03;;